NV21 weather

Sky Ranch Heliport
Sandy Valley, Nevada, United States

Public forecast

Using degrees Fahrenheit for public forecast. Weather courtesy of forecast.io.

METAR (pilot weather report)

Closest report is Henderson Executive Airport, 26.2 nm (48.6 km) ENE. Retrieved 2019/03/22 12:56 UTC (51 minutes ago):

KHND 221256Z 18008KT 10SM CLR 07/02 A3004 RMK AO2 SLP173 T00720022 /

TAF (pilot weather forecast)

Closest forecast is Henderson Executive Airport, 26.2 nm (48.6 km) ENE. Retrieved 2019/03/22 12:22 UTC (1 hour ago):

TAF KHND 221120Z 2212/2312 21011KT P6SM FEW120 FM221600 VRB05KT P6SM FEW120 FM222200 23007KT P6SM FEW120 SCT200 FM230300 18007KT P6SM BKN200